sensor_id;sensor_type;location;lat;lon;timestamp;temperature;humidity
35381;DHT22;21486;51.916;8.378;2023-03-01T00:00:37;-1.80;90.90
35381;DHT22;21486;51.916;8.378;2023-03-01T00:03:03;-1.70;90.90
35381;DHT22;21486;51.916;8.378;2023-03-01T00:05:28;-1.80;91.30
35381;DHT22;21486;51.916;8.378;2023-03-01T00:07:54;-1.80;91.40
35381;DHT22;21486;51.916;8.378;2023-03-01T00:10:19;-1.80;91.20
35381;DHT22;21486;51.916;8.378;2023-03-01T00:12:44;-1.80;91.30
35381;DHT22;21486;51.916;8.378;2023-03-01T00:15:10;-1.70;91.40
35381;DHT22;21486;51.916;8.378;2023-03-01T00:17:37;-1.80;91.10
35381;DHT22;21486;51.916;8.378;2023-03-01T00:20:02;-1.80;91.40
35381;DHT22;21486;51.916;8.378;2023-03-01T00:22:28;-1.90;91.60
35381;DHT22;21486;51.916;8.378;2023-03-01T00:24:54;-1.90;91.90
35381;DHT22;21486;51.916;8.378;2023-03-01T00:27:19;-1.90;92.10
35381;DHT22;21486;51.916;8.378;2023-03-01T00:29:45;-2.00;92.00
35381;DHT22;21486;51.916;8.378;2023-03-01T00:32:10;-2.00;91.90
35381;DHT22;21486;51.916;8.378;2023-03-01T00:34:35;-2.00;92.10
35381;DHT22;21486;51.916;8.378;2023-03-01T00:37:01;-2.00;92.10
35381;DHT22;21486;51.916;8.378;2023-03-01T00:39:30;-2.00;92.00
35381;DHT22;21486;51.916;8.378;2023-03-01T00:41:56;-2.00;92.00
35381;DHT22;21486;51.916;8.378;2023-03-01T00:44:22;-2.00;92.10
35381;DHT22;21486;51.916;8.378;2023-03-01T00:46:47;-2.10;92.20
35381;DHT22;21486;51.916;8.378;2023-03-01T00:49:13;-2.10;92.40
35381;DHT22;21486;51.916;8.378;2023-03-01T00:51:38;-2.00;92.70
35381;DHT22;21486;51.916;8.378;2023-03-01T00:54:09;-2.10;92.60
35381;DHT22;21486;51.916;8.378;2023-03-01T00:56:35;-2.20;92.60
35381;DHT22;21486;51.916;8.378;2023-03-01T00:59:01;-2.20;92.80
35381;DHT22;21486;51.916;8.378;2023-03-01T01:01:27;-2.20;93.00
35381;DHT22;21486;51.916;8.378;2023-03-01T01:03:57;-2.10;93.20
35381;DHT22;21486;51.916;8.378;2023-03-01T01:08:48;-2.30;93.10
35381;DHT22;21486;51.916;8.378;2023-03-01T01:11:14;-2.30;93.30
35381;DHT22;21486;51.916;8.378;2023-03-01T01:13:41;-2.30;93.30
35381;DHT22;21486;51.916;8.378;2023-03-01T01:16:06;-2.30;93.20
35381;DHT22;21486;51.916;8.378;2023-03-01T01:18:32;-2.30;93.30
35381;DHT22;21486;51.916;8.378;2023-03-01T01:20:57;-2.40;93.30
35381;DHT22;21486;51.916;8.378;2023-03-01T01:23:27;-2.40;93.40
35381;DHT22;21486;51.916;8.378;2023-03-01T01:25:53;-2.30;93.50
35381;DHT22;21486;51.916;8.378;2023-03-01T01:28:18;-2.40;93.40
35381;DHT22;21486;51.916;8.378;2023-03-01T01:33:04;-2.40;93.40
35381;DHT22;21486;51.916;8.378;2023-03-01T01:35:29;-2.30;93.70
35381;DHT22;21486;51.916;8.378;2023-03-01T01:37:55;-2.40;93.90
35381;DHT22;21486;51.916;8.378;2023-03-01T01:40:20;-2.40;94.10
35381;DHT22;21486;51.916;8.378;2023-03-01T01:42:46;-2.50;94.30
35381;DHT22;21486;51.916;8.378;2023-03-01T01:45:28;-2.50;94.40
35381;DHT22;21486;51.916;8.378;2023-03-01T01:47:57;-2.40;94.40
35381;DHT22;21486;51.916;8.378;2023-03-01T01:50:24;-2.30;93.80
35381;DHT22;21486;51.916;8.378;2023-03-01T01:52:51;-2.20;93.20
35381;DHT22;21486;51.916;8.378;2023-03-01T01:55:24;-2.30;93.30
35381;DHT22;21486;51.916;8.378;2023-03-01T01:57:56;-2.30;93.60
35381;DHT22;21486;51.916;8.378;2023-03-01T02:00:27;-2.30;93.60
35381;DHT22;21486;51.916;8.378;2023-03-01T02:03:06;-2.40;93.70
35381;DHT22;21486;51.916;8.378;2023-03-01T02:05:52;-2.40;93.60
35381;DHT22;21486;51.916;8.378;2023-03-01T02:08:19;-2.40;93.50
35381;DHT22;21486;51.916;8.378;2023-03-01T02:10:45;-2.40;93.40
35381;DHT22;21486;51.916;8.378;2023-03-01T02:13:12;-2.40;93.20
35381;DHT22;21486;51.916;8.378;2023-03-01T02:15:39;-2.30;93.10
35381;DHT22;21486;51.916;8.378;2023-03-01T02:18:07;-2.30;93.10
35381;DHT22;21486;51.916;8.378;2023-03-01T02:23:01;-2.40;93.60
35381;DHT22;21486;51.916;8.378;2023-03-01T02:25:38;-2.40;93.70
35381;DHT22;21486;51.916;8.378;2023-03-01T02:30:39;-2.50;93.80
35381;DHT22;21486;51.916;8.378;2023-03-01T02:33:26;-2.50;93.90
35381;DHT22;21486;51.916;8.378;2023-03-01T02:35:53;-2.50;93.80
35381;DHT22;21486;51.916;8.378;2023-03-01T02:38:19;-2.40;93.70
35381;DHT22;21486;51.916;8.378;2023-03-01T02:40:46;-2.40;93.90
35381;DHT22;21486;51.916;8.378;2023-03-01T02:43:14;-2.50;93.90
35381;DHT22;21486;51.916;8.378;2023-03-01T02:45:50;-2.50;93.90
35381;DHT22;21486;51.916;8.378;2023-03-01T02:48:17;-2.50;94.20
35381;DHT22;21486;51.916;8.378;2023-03-01T02:50:51;-2.60;94.40
35381;DHT22;21486;51.916;8.378;2023-03-01T02:56:21;-2.60;94.40
35381;DHT22;21486;51.916;8.378;2023-03-01T02:58:47;-2.60;94.30
35381;DHT22;21486;51.916;8.378;2023-03-01T03:01:17;-2.60;94.30
35381;DHT22;21486;51.916;8.378;2023-03-01T03:03:43;-2.60;94.30
35381;DHT22;21486;51.916;8.378;2023-03-01T03:06:09;-2.70;94.20
35381;DHT22;21486;51.916;8.378;2023-03-01T03:08:35;-2.70;94.30
35381;DHT22;21486;51.916;8.378;2023-03-01T03:11:00;-2.60;94.20
35381;DHT22;21486;51.916;8.378;2023-03-01T03:13:26;-2.60;93.80
35381;DHT22;21486;51.916;8.378;2023-03-01T03:15:55;-2.70;94.00
35381;DHT22;21486;51.916;8.378;2023-03-01T03:18:21;-2.60;94.20
35381;DHT22;21486;51.916;8.378;2023-03-01T03:20:47;-2.70;94.10
35381;DHT22;21486;51.916;8.378;2023-03-01T03:23:18;-2.80;94.30
35381;DHT22;21486;51.916;8.378;2023-03-01T03:25:43;-2.70;94.00
35381;DHT22;21486;51.916;8.378;2023-03-01T03:28:09;-2.70;94.00
35381;DHT22;21486;51.916;8.378;2023-03-01T03:30:36;-2.80;94.20
35381;DHT22;21486;51.916;8.378;2023-03-01T03:33:02;-2.80;94.40
35381;DHT22;21486;51.916;8.378;2023-03-01T03:35:33;-2.80;94.30
35381;DHT22;21486;51.916;8.378;2023-03-01T03:38:01;-2.90;94.20
35381;DHT22;21486;51.916;8.378;2023-03-01T03:40:41;-2.90;94.40
35381;DHT22;21486;51.916;8.378;2023-03-01T03:43:18;-2.80;94.50
35381;DHT22;21486;51.916;8.378;2023-03-01T03:45:45;-2.80;94.10
35381;DHT22;21486;51.916;8.378;2023-03-01T03:48:11;-2.80;94.10
35381;DHT22;21486;51.916;8.378;2023-03-01T03:50:40;-2.80;94.20
35381;DHT22;21486;51.916;8.378;2023-03-01T03:53:10;-2.80;94.20
35381;DHT22;21486;51.916;8.378;2023-03-01T03:55:37;-2.80;93.90
35381;DHT22;21486;51.916;8.378;2023-03-01T03:58:05;-2.80;93.60
35381;DHT22;21486;51.916;8.378;2023-03-01T04:00:44;-2.70;93.70
35381;DHT22;21486;51.916;8.378;2023-03-01T04:03:11;-2.70;93.60
35381;DHT22;21486;51.916;8.378;2023-03-01T04:05:38;-2.70;93.50
35381;DHT22;21486;51.916;8.378;2023-03-01T04:08:04;-2.70;93.70
35381;DHT22;21486;51.916;8.378;2023-03-01T04:10:35;-2.80;93.90
35381;DHT22;21486;51.916;8.378;2023-03-01T04:13:03;-2.80;93.90
35381;DHT22;21486;51.916;8.378;2023-03-01T04:15:30;-2.80;94.00
35381;DHT22;21486;51.916;8.378;2023-03-01T04:17:56;-2.80;94.00
35381;DHT22;21486;51.916;8.378;2023-03-01T04:20:25;-2.80;93.80
35381;DHT22;21486;51.916;8.378;2023-03-01T04:23:09;-2.80;93.90
35381;DHT22;21486;51.916;8.378;2023-03-01T04:25:52;-2.80;93.90
35381;DHT22;21486;51.916;8.378;2023-03-01T04:28:26;-2.80;93.90
35381;DHT22;21486;51.916;8.378;2023-03-01T04:30:56;-2.80;93.80
35381;DHT22;21486;51.916;8.378;2023-03-01T04:33:23;-2.70;93.70
35381;DHT22;21486;51.916;8.378;2023-03-01T04:35:49;-2.70;93.60
35381;DHT22;21486;51.916;8.378;2023-03-01T04:38:16;-2.70;93.80
35381;DHT22;21486;51.916;8.378;2023-03-01T04:40:42;-2.70;93.80
35381;DHT22;21486;51.916;8.378;2023-03-01T04:43:09;-2.60;93.80
35381;DHT22;21486;51.916;8.378;2023-03-01T04:45:35;-2.70;93.70
35381;DHT22;21486;51.916;8.378;2023-03-01T04:48:00;-2.50;93.10
35381;DHT22;21486;51.916;8.378;2023-03-01T04:50:26;-2.50;93.00
35381;DHT22;21486;51.916;8.378;2023-03-01T04:52:52;-2.70;93.60
35381;DHT22;21486;51.916;8.378;2023-03-01T04:55:18;-2.70;93.60
35381;DHT22;21486;51.916;8.378;2023-03-01T04:57:45;-2.70;93.60
35381;DHT22;21486;51.916;8.378;2023-03-01T05:00:12;-2.80;93.80
35381;DHT22;21486;51.916;8.378;2023-03-01T05:02:49;-2.90;94.00
35381;DHT22;21486;51.916;8.378;2023-03-01T05:05:19;-2.90;94.10
35381;DHT22;21486;51.916;8.378;2023-03-01T05:07:44;-2.80;94.20
35381;DHT22;21486;51.916;8.378;2023-03-01T05:10:10;-2.90;94.10
35381;DHT22;21486;51.916;8.378;2023-03-01T05:12:35;-3.00;94.20
35381;DHT22;21486;51.916;8.378;2023-03-01T05:15:03;-3.00;94.30
35381;DHT22;21486;51.916;8.378;2023-03-01T05:17:33;-3.10;94.50
35381;DHT22;21486;51.916;8.378;2023-03-01T05:19:58;-3.10;94.70
35381;DHT22;21486;51.916;8.378;2023-03-01T05:22:25;-3.10;94.80
35381;DHT22;21486;51.916;8.378;2023-03-01T05:24:50;-3.20;95.00
35381;DHT22;21486;51.916;8.378;2023-03-01T05:27:16;-3.20;95.30
35381;DHT22;21486;51.916;8.378;2023-03-01T05:29:41;-3.20;95.40
35381;DHT22;21486;51.916;8.378;2023-03-01T05:32:07;-3.20;95.10
35381;DHT22;21486;51.916;8.378;2023-03-01T05:34:35;-3.20;95.40
35381;DHT22;21486;51.916;8.378;2023-03-01T05:37:02;-3.20;95.50
35381;DHT22;21486;51.916;8.378;2023-03-01T05:39:29;-3.20;95.50
35381;DHT22;21486;51.916;8.378;2023-03-01T05:41:56;-3.10;95.50
35381;DHT22;21486;51.916;8.378;2023-03-01T05:44:23;-3.30;95.10
35381;DHT22;21486;51.916;8.378;2023-03-01T05:46:49;-3.30;95.30
35381;DHT22;21486;51.916;8.378;2023-03-01T05:49:15;-3.30;95.30
35381;DHT22;21486;51.916;8.378;2023-03-01T05:51:42;-3.30;95.50
35381;DHT22;21486;51.916;8.378;2023-03-01T05:54:09;-3.40;95.50
35381;DHT22;21486;51.916;8.378;2023-03-01T05:56:35;-3.40;95.70
35381;DHT22;21486;51.916;8.378;2023-03-01T05:59:02;-3.30;95.70
35381;DHT22;21486;51.916;8.378;2023-03-01T06:01:28;-3.40;95.80
35381;DHT22;21486;51.916;8.378;2023-03-01T06:03:54;-3.30;95.80
35381;DHT22;21486;51.916;8.378;2023-03-01T06:06:21;-3.40;96.00
35381;DHT22;21486;51.916;8.378;2023-03-01T06:08:46;-3.40;95.90
35381;DHT22;21486;51.916;8.378;2023-03-01T06:11:12;-3.40;96.00
35381;DHT22;21486;51.916;8.378;2023-03-01T06:13:37;-3.40;95.90
35381;DHT22;21486;51.916;8.378;2023-03-01T06:16:07;-3.30;95.80
35381;DHT22;21486;51.916;8.378;2023-03-01T06:18:32;-3.30;95.50
35381;DHT22;21486;51.916;8.378;2023-03-01T06:20:58;-3.30;95.70
35381;DHT22;21486;51.916;8.378;2023-03-01T06:23:24;-3.30;95.70
35381;DHT22;21486;51.916;8.378;2023-03-01T06:25:50;-3.30;95.60
35381;DHT22;21486;51.916;8.378;2023-03-01T06:28:15;-3.30;95.60
35381;DHT22;21486;51.916;8.378;2023-03-01T06:30:41;-3.30;95.80
35381;DHT22;21486;51.916;8.378;2023-03-01T06:33:07;-3.30;95.70
35381;DHT22;21486;51.916;8.378;2023-03-01T06:35:32;-3.30;95.80
35381;DHT22;21486;51.916;8.378;2023-03-01T06:38:00;-3.30;95.90
35381;DHT22;21486;51.916;8.378;2023-03-01T06:40:26;-3.40;96.00
35381;DHT22;21486;51.916;8.378;2023-03-01T06:42:52;-3.30;96.10
35381;DHT22;21486;51.916;8.378;2023-03-01T06:45:19;-3.20;96.10
35381;DHT22;21486;51.916;8.378;2023-03-01T06:47:45;-3.20;96.00
35381;DHT22;21486;51.916;8.378;2023-03-01T06:50:11;-3.00;95.80
35381;DHT22;21486;51.916;8.378;2023-03-01T06:52:37;-3.10;95.80
35381;DHT22;21486;51.916;8.378;2023-03-01T06:55:03;-3.10;95.30
35381;DHT22;21486;51.916;8.378;2023-03-01T06:57:29;-2.90;95.00
35381;DHT22;21486;51.916;8.378;2023-03-01T06:59:54;-2.90;95.10
35381;DHT22;21486;51.916;8.378;2023-03-01T07:02:20;-2.90;95.00
35381;DHT22;21486;51.916;8.378;2023-03-01T07:04:46;-2.80;95.00
35381;DHT22;21486;51.916;8.378;2023-03-01T07:07:13;-2.70;95.20
35381;DHT22;21486;51.916;8.378;2023-03-01T07:09:39;-2.70;94.90
35381;DHT22;21486;51.916;8.378;2023-03-01T07:12:05;-2.70;94.80
35381;DHT22;21486;51.916;8.378;2023-03-01T07:14:30;-2.60;94.70
35381;DHT22;21486;51.916;8.378;2023-03-01T07:16:56;-2.60;94.70
35381;DHT22;21486;51.916;8.378;2023-03-01T07:19:22;-2.50;94.60
35381;DHT22;21486;51.916;8.378;2023-03-01T07:21:48;-2.40;94.80
35381;DHT22;21486;51.916;8.378;2023-03-01T07:24:14;-2.40;94.80
35381;DHT22;21486;51.916;8.378;2023-03-01T07:26:39;-2.40;94.60
35381;DHT22;21486;51.916;8.378;2023-03-01T07:29:06;-2.30;94.50
35381;DHT22;21486;51.916;8.378;2023-03-01T07:31:32;-2.20;94.50
35381;DHT22;21486;51.916;8.378;2023-03-01T07:33:58;-2.10;94.20
35381;DHT22;21486;51.916;8.378;2023-03-01T07:36:24;-2.10;93.90
35381;DHT22;21486;51.916;8.378;2023-03-01T07:38:50;-1.90;93.90
35381;DHT22;21486;51.916;8.378;2023-03-01T07:41:16;-1.90;93.40
35381;DHT22;21486;51.916;8.378;2023-03-01T07:43:42;-1.80;93.40
35381;DHT22;21486;51.916;8.378;2023-03-01T07:46:09;-1.60;93.00
35381;DHT22;21486;51.916;8.378;2023-03-01T07:48:35;-1.60;92.70
35381;DHT22;21486;51.916;8.378;2023-03-01T07:51:02;-1.50;92.30
35381;DHT22;21486;51.916;8.378;2023-03-01T07:53:29;-1.30;92.10
35381;DHT22;21486;51.916;8.378;2023-03-01T07:56:07;-1.30;92.00
35381;DHT22;21486;51.916;8.378;2023-03-01T07:58:38;-1.20;91.80
35381;DHT22;21486;51.916;8.378;2023-03-01T08:01:06;-1.10;91.40
35381;DHT22;21486;51.916;8.378;2023-03-01T08:03:32;-1.00;90.80
35381;DHT22;21486;51.916;8.378;2023-03-01T08:06:02;-0.90;90.90
35381;DHT22;21486;51.916;8.378;2023-03-01T08:08:28;-0.50;87.70
35381;DHT22;21486;51.916;8.378;2023-03-01T08:11:00;-0.50;87.50
35381;DHT22;21486;51.916;8.378;2023-03-01T08:13:27;-0.40;87.40
35381;DHT22;21486;51.916;8.378;2023-03-01T08:15:53;-0.30;86.70
35381;DHT22;21486;51.916;8.378;2023-03-01T08:18:20;0.00;85.00
35381;DHT22;21486;51.916;8.378;2023-03-01T08:20:46;0.20;82.30
35381;DHT22;21486;51.916;8.378;2023-03-01T08:23:12;0.50;80.90
35381;DHT22;21486;51.916;8.378;2023-03-01T08:25:38;0.60;79.20
35381;DHT22;21486;51.916;8.378;2023-03-01T08:28:04;0.80;78.40
35381;DHT22;21486;51.916;8.378;2023-03-01T08:30:30;0.90;77.80
35381;DHT22;21486;51.916;8.378;2023-03-01T08:32:56;1.00;77.00
35381;DHT22;21486;51.916;8.378;2023-03-01T08:35:22;1.20;76.50
35381;DHT22;21486;51.916;8.378;2023-03-01T08:37:47;1.30;74.60
35381;DHT22;21486;51.916;8.378;2023-03-01T08:40:13;1.40;73.70
35381;DHT22;21486;51.916;8.378;2023-03-01T08:42:40;1.50;73.10
35381;DHT22;21486;51.916;8.378;2023-03-01T08:45:07;1.70;72.20
35381;DHT22;21486;51.916;8.378;2023-03-01T08:47:32;1.90;71.00
35381;DHT22;21486;51.916;8.378;2023-03-01T08:49:59;2.20;71.00
35381;DHT22;21486;51.916;8.378;2023-03-01T08:52:25;2.30;70.30
35381;DHT22;21486;51.916;8.378;2023-03-01T08:54:51;2.50;68.20
35381;DHT22;21486;51.916;8.378;2023-03-01T08:57:16;2.70;66.50
35381;DHT22;21486;51.916;8.378;2023-03-01T08:59:42;3.00;66.40
35381;DHT22;21486;51.916;8.378;2023-03-01T09:02:16;3.00;64.60
35381;DHT22;21486;51.916;8.378;2023-03-01T09:04:42;3.20;64.80
35381;DHT22;21486;51.916;8.378;2023-03-01T09:07:08;3.60;61.70
35381;DHT22;21486;51.916;8.378;2023-03-01T09:09:34;3.80;61.80
35381;DHT22;21486;51.916;8.378;2023-03-01T09:12:00;4.10;60.10
35381;DHT22;21486;51.916;8.378;2023-03-01T09:14:26;4.40;59.10
35381;DHT22;21486;51.916;8.378;2023-03-01T09:16:52;4.50;58.40
35381;DHT22;21486;51.916;8.378;2023-03-01T09:19:17;4.90;58.40
35381;DHT22;21486;51.916;8.378;2023-03-01T09:21:43;5.40;55.60
35381;DHT22;21486;51.916;8.378;2023-03-01T09:24:22;5.90;54.20
35381;DHT22;21486;51.916;8.378;2023-03-01T09:26:48;6.30;53.20
35381;DHT22;21486;51.916;8.378;2023-03-01T09:29:14;6.50;53.50
35381;DHT22;21486;51.916;8.378;2023-03-01T09:31:40;7.00;51.80
35381;DHT22;21486;51.916;8.378;2023-03-01T09:34:06;7.30;50.60
35381;DHT22;21486;51.916;8.378;2023-03-01T09:36:32;7.30;49.40
35381;DHT22;21486;51.916;8.378;2023-03-01T09:38:58;7.30;49.70
35381;DHT22;21486;51.916;8.378;2023-03-01T09:41:59;7.30;48.90
35381;DHT22;21486;51.916;8.378;2023-03-01T09:47:14;6.80;49.40
35381;DHT22;21486;51.916;8.378;2023-03-01T09:49:43;7.30;49.10
35381;DHT22;21486;51.916;8.378;2023-03-01T09:52:28;7.50;47.60
35381;DHT22;21486;51.916;8.378;2023-03-01T09:54:56;8.00;47.70
35381;DHT22;21486;51.916;8.378;2023-03-01T09:57:53;8.60;46.40
35381;DHT22;21486;51.916;8.378;2023-03-01T10:00:26;8.20;46.60
35381;DHT22;21486;51.916;8.378;2023-03-01T10:03:15;8.30;45.40
35381;DHT22;21486;51.916;8.378;2023-03-01T10:08:33;7.90;47.40
35381;DHT22;21486;51.916;8.378;2023-03-01T10:11:02;7.80;46.50
35381;DHT22;21486;51.916;8.378;2023-03-01T10:14:18;7.70;46.80
35381;DHT22;21486;51.916;8.378;2023-03-01T10:18:59;8.00;46.60
35381;DHT22;21486;51.916;8.378;2023-03-01T10:21:28;8.20;46.50
35381;DHT22;21486;51.916;8.378;2023-03-01T10:24:07;8.30;46.30
35381;DHT22;21486;51.916;8.378;2023-03-01T10:29:08;8.00;46.40
35381;DHT22;21486;51.916;8.378;2023-03-01T10:31:46;7.80;46.50
35381;DHT22;21486;51.916;8.378;2023-03-01T10:34:17;7.80;46.50
35381;DHT22;21486;51.916;8.378;2023-03-01T10:36:44;7.80;47.20
35381;DHT22;21486;51.916;8.378;2023-03-01T10:39:19;8.10;46.90
35381;DHT22;21486;51.916;8.378;2023-03-01T10:41:54;8.60;45.50
35381;DHT22;21486;51.916;8.378;2023-03-01T10:44:43;9.00;45.00
35381;DHT22;21486;51.916;8.378;2023-03-01T10:47:25;9.00;45.40
35381;DHT22;21486;51.916;8.378;2023-03-01T10:50:02;9.00;44.80
35381;DHT22;21486;51.916;8.378;2023-03-01T10:52:34;9.10;44.80
35381;DHT22;21486;51.916;8.378;2023-03-01T10:57:39;9.50;44.60
35381;DHT22;21486;51.916;8.378;2023-03-01T11:00:25;9.50;43.50
35381;DHT22;21486;51.916;8.378;2023-03-01T11:03:12;9.20;44.80
35381;DHT22;21486;51.916;8.378;2023-03-01T11:05:59;9.40;44.30
35381;DHT22;21486;51.916;8.378;2023-03-01T11:08:41;9.40;44.00
35381;DHT22;21486;51.916;8.378;2023-03-01T11:16:39;9.00;45.00
35381;DHT22;21486;51.916;8.378;2023-03-01T11:21:50;9.40;44.50
35381;DHT22;21486;51.916;8.378;2023-03-01T11:24:18;9.90;44.00
35381;DHT22;21486;51.916;8.378;2023-03-01T11:26:50;10.20;44.00
35381;DHT22;21486;51.916;8.378;2023-03-01T11:29:27;10.70;43.30
35381;DHT22;21486;51.916;8.378;2023-03-01T11:31:56;11.00;42.80
35381;DHT22;21486;51.916;8.378;2023-03-01T11:34:42;11.20;41.40
35381;DHT22;21486;51.916;8.378;2023-03-01T11:37:19;11.10;40.90
35381;DHT22;21486;51.916;8.378;2023-03-01T11:40:14;10.60;40.90
35381;DHT22;21486;51.916;8.378;2023-03-01T11:43:02;9.80;42.30
35381;DHT22;21486;51.916;8.378;2023-03-01T11:48:34;10.10;42.10
35381;DHT22;21486;51.916;8.378;2023-03-01T11:51:09;9.90;42.30
35381;DHT22;21486;51.916;8.378;2023-03-01T11:53:50;10.10;41.80
35381;DHT22;21486;51.916;8.378;2023-03-01T11:56:31;9.90;40.30
35381;DHT22;21486;51.916;8.378;2023-03-01T12:07:20;9.00;42.00
35381;DHT22;21486;51.916;8.378;2023-03-01T12:12:55;8.90;41.80
35381;DHT22;21486;51.916;8.378;2023-03-01T12:24:15;8.40;43.70
35381;DHT22;21486;51.916;8.378;2023-03-01T12:27:06;8.10;45.70
35381;DHT22;21486;51.916;8.378;2023-03-01T12:29:46;7.90;44.90
35381;DHT22;21486;51.916;8.378;2023-03-01T12:35:39;7.10;46.30
35381;DHT22;21486;51.916;8.378;2023-03-01T12:38:25;6.90;46.80
35381;DHT22;21486;51.916;8.378;2023-03-01T12:46:25;6.50;48.40
35381;DHT22;21486;51.916;8.378;2023-03-01T12:49:09;6.60;49.40
35381;DHT22;21486;51.916;8.378;2023-03-01T12:51:38;6.70;49.20
35381;DHT22;21486;51.916;8.378;2023-03-01T12:54:27;6.70;49.20
35381;DHT22;21486;51.916;8.378;2023-03-01T12:56:54;6.60;49.40
35381;DHT22;21486;51.916;8.378;2023-03-01T13:05:06;6.80;47.60
35381;DHT22;21486;51.916;8.378;2023-03-01T13:10:35;6.80;47.20
35381;DHT22;21486;51.916;8.378;2023-03-01T13:13:20;7.10;45.90
35381;DHT22;21486;51.916;8.378;2023-03-01T13:15:47;7.40;45.50
35381;DHT22;21486;51.916;8.378;2023-03-01T13:20:47;7.90;42.90
35381;DHT22;21486;51.916;8.378;2023-03-01T13:33:55;9.10;41.80
35381;DHT22;21486;51.916;8.378;2023-03-01T13:39:32;9.80;40.80
35381;DHT22;21486;51.916;8.378;2023-03-01T13:42:29;10.00;40.10
35381;DHT22;21486;51.916;8.378;2023-03-01T13:44:56;9.90;40.00
35381;DHT22;21486;51.916;8.378;2023-03-01T13:47:22;9.50;40.20
35381;DHT22;21486;51.916;8.378;2023-03-01T13:49:57;9.50;40.60
35381;DHT22;21486;51.916;8.378;2023-03-01T13:52:39;9.50;40.70
35381;DHT22;21486;51.916;8.378;2023-03-01T13:55:17;9.50;38.20
35381;DHT22;21486;51.916;8.378;2023-03-01T13:57:50;9.20;38.10
35381;DHT22;21486;51.916;8.378;2023-03-01T14:03:15;8.40;40.00
35381;DHT22;21486;51.916;8.378;2023-03-01T14:05:43;7.90;40.60
35381;DHT22;21486;51.916;8.378;2023-03-01T14:08:24;7.50;40.00
35381;DHT22;21486;51.916;8.378;2023-03-01T14:19:17;7.20;42.40
35381;DHT22;21486;51.916;8.378;2023-03-01T14:21:44;7.10;42.80
35381;DHT22;21486;51.916;8.378;2023-03-01T14:24:21;7.10;41.70
35381;DHT22;21486;51.916;8.378;2023-03-01T14:26:49;7.10;41.30
35381;DHT22;21486;51.916;8.378;2023-03-01T14:29:26;7.10;42.30
35381;DHT22;21486;51.916;8.378;2023-03-01T14:31:53;7.10;40.20
35381;DHT22;21486;51.916;8.378;2023-03-01T14:34:21;7.00;40.20
35381;DHT22;21486;51.916;8.378;2023-03-01T14:36:47;6.90;40.00
35381;DHT22;21486;51.916;8.378;2023-03-01T14:39:22;6.90;40.50
35381;DHT22;21486;51.916;8.378;2023-03-01T14:41:49;6.90;40.90
35381;DHT22;21486;51.916;8.378;2023-03-01T14:44:20;6.80;40.60
35381;DHT22;21486;51.916;8.378;2023-03-01T14:46:54;6.90;40.90
35381;DHT22;21486;51.916;8.378;2023-03-01T14:49:23;6.90;41.40
35381;DHT22;21486;51.916;8.378;2023-03-01T14:52:07;6.90;40.80
35381;DHT22;21486;51.916;8.378;2023-03-01T14:54:46;6.80;41.10
35381;DHT22;21486;51.916;8.378;2023-03-01T14:57:19;6.80;41.50
35381;DHT22;21486;51.916;8.378;2023-03-01T14:59:48;6.80;42.00
35381;DHT22;21486;51.916;8.378;2023-03-01T15:02:17;6.90;42.50
35381;DHT22;21486;51.916;8.378;2023-03-01T15:04:47;6.80;43.00
35381;DHT22;21486;51.916;8.378;2023-03-01T15:07:14;6.80;42.90
35381;DHT22;21486;51.916;8.378;2023-03-01T15:09:40;6.90;43.00
35381;DHT22;21486;51.916;8.378;2023-03-01T15:14:55;6.90;43.70
35381;DHT22;21486;51.916;8.378;2023-03-01T15:17:35;6.80;43.20
35381;DHT22;21486;51.916;8.378;2023-03-01T15:20:04;6.90;43.40
35381;DHT22;21486;51.916;8.378;2023-03-01T15:22:31;6.80;43.90
35381;DHT22;21486;51.916;8.378;2023-03-01T15:24:57;6.80;44.20
35381;DHT22;21486;51.916;8.378;2023-03-01T15:27:25;6.90;44.70
35381;DHT22;21486;51.916;8.378;2023-03-01T15:32:35;6.80;45.50
35381;DHT22;21486;51.916;8.378;2023-03-01T15:35:39;6.70;45.90
35381;DHT22;21486;51.916;8.378;2023-03-01T15:38:32;6.70;47.40
35381;DHT22;21486;51.916;8.378;2023-03-01T15:41:00;6.60;46.00
35381;DHT22;21486;51.916;8.378;2023-03-01T15:43:38;6.60;45.40
35381;DHT22;21486;51.916;8.378;2023-03-01T15:46:04;6.50;45.70
35381;DHT22;21486;51.916;8.378;2023-03-01T15:48:29;6.50;45.20
35381;DHT22;21486;51.916;8.378;2023-03-01T15:50:57;6.60;45.50
35381;DHT22;21486;51.916;8.378;2023-03-01T15:53:23;6.50;45.60
35381;DHT22;21486;51.916;8.378;2023-03-01T15:55:49;6.40;46.00
35381;DHT22;21486;51.916;8.378;2023-03-01T15:58:21;6.40;46.50
35381;DHT22;21486;51.916;8.378;2023-03-01T16:00:48;6.30;47.00
35381;DHT22;21486;51.916;8.378;2023-03-01T16:03:15;6.30;47.30
35381;DHT22;21486;51.916;8.378;2023-03-01T16:05:47;6.20;47.60
35381;DHT22;21486;51.916;8.378;2023-03-01T16:08:14;6.20;47.80
35381;DHT22;21486;51.916;8.378;2023-03-01T16:10:41;6.20;48.00
35381;DHT22;21486;51.916;8.378;2023-03-01T16:13:09;6.20;48.20
35381;DHT22;21486;51.916;8.378;2023-03-01T16:15:35;6.10;48.70
35381;DHT22;21486;51.916;8.378;2023-03-01T16:18:01;6.10;48.70
35381;DHT22;21486;51.916;8.378;2023-03-01T16:20:28;6.00;48.90
35381;DHT22;21486;51.916;8.378;2023-03-01T16:22:55;6.00;49.40
35381;DHT22;21486;51.916;8.378;2023-03-01T16:25:21;5.90;50.00
35381;DHT22;21486;51.916;8.378;2023-03-01T16:27:48;5.80;49.90
35381;DHT22;21486;51.916;8.378;2023-03-01T16:30:16;5.90;50.40
35381;DHT22;21486;51.916;8.378;2023-03-01T16:32:43;5.80;50.50
35381;DHT22;21486;51.916;8.378;2023-03-01T16:35:10;5.70;51.20
35381;DHT22;21486;51.916;8.378;2023-03-01T16:37:37;5.70;51.10
35381;DHT22;21486;51.916;8.378;2023-03-01T16:40:03;5.80;51.30
35381;DHT22;21486;51.916;8.378;2023-03-01T16:42:34;5.60;51.40
35381;DHT22;21486;51.916;8.378;2023-03-01T16:45:00;5.60;51.50
35381;DHT22;21486;51.916;8.378;2023-03-01T16:47:27;5.60;51.60
35381;DHT22;21486;51.916;8.378;2023-03-01T16:49:53;5.40;51.40
35381;DHT22;21486;51.916;8.378;2023-03-01T16:52:19;5.50;51.60
35381;DHT22;21486;51.916;8.378;2023-03-01T16:54:46;5.50;51.80
35381;DHT22;21486;51.916;8.378;2023-03-01T16:57:11;5.40;52.10
35381;DHT22;21486;51.916;8.378;2023-03-01T16:59:37;5.40;52.90
35381;DHT22;21486;51.916;8.378;2023-03-01T17:02:04;5.30;52.70
35381;DHT22;21486;51.916;8.378;2023-03-01T17:04:31;5.10;53.20
35381;DHT22;21486;51.916;8.378;2023-03-01T17:06:56;5.10;53.40
35381;DHT22;21486;51.916;8.378;2023-03-01T17:09:22;5.10;53.80
35381;DHT22;21486;51.916;8.378;2023-03-01T17:11:48;5.10;54.00
35381;DHT22;21486;51.916;8.378;2023-03-01T17:14:15;5.00;54.40
35381;DHT22;21486;51.916;8.378;2023-03-01T17:16:41;5.00;54.60
35381;DHT22;21486;51.916;8.378;2023-03-01T17:19:07;5.00;54.70
35381;DHT22;21486;51.916;8.378;2023-03-01T17:21:33;4.80;54.90
35381;DHT22;21486;51.916;8.378;2023-03-01T17:23:59;4.80;54.90
35381;DHT22;21486;51.916;8.378;2023-03-01T17:26:25;4.70;55.20
35381;DHT22;21486;51.916;8.378;2023-03-01T17:28:50;4.70;55.50
35381;DHT22;21486;51.916;8.378;2023-03-01T17:31:17;4.70;55.70
35381;DHT22;21486;51.916;8.378;2023-03-01T17:33:43;4.60;56.50
35381;DHT22;21486;51.916;8.378;2023-03-01T17:36:08;4.70;56.00
35381;DHT22;21486;51.916;8.378;2023-03-01T17:38:34;4.60;56.10